createdAt,value
2022-08-16T00:01:10.522Z,85.47
2022-08-16T00:04:01.879Z,85.82
2022-08-16T00:06:53.714Z,86.06
2022-08-16T00:09:42.861Z,86.47
2022-08-16T00:12:32.156Z,86.29
2022-08-16T00:15:24.740Z,86.60
2022-08-16T00:18:33.544Z,87.20
2022-08-16T00:21:23.327Z,87.06
2022-08-16T00:24:12.755Z,87.66
2022-08-16T00:27:01.713Z,87.67
2022-08-16T00:30:00.595Z,87.63
2022-08-16T00:33:00.186Z,87.96
2022-08-16T00:35:48.641Z,87.75
2022-08-16T00:38:43.242Z,87.54
2022-08-16T00:41:33.170Z,88.15
2022-08-16T00:44:31.883Z,87.75
2022-08-16T00:47:22.606Z,88.03
2022-08-16T00:50:12.320Z,88.02
2022-08-16T00:53:01.260Z,87.80
2022-08-16T00:55:56.117Z,87.78
2022-08-16T00:58:47.432Z,88.11
2022-08-16T01:01:36.060Z,88.38
2022-08-16T01:04:29.986Z,89.09
2022-08-16T01:07:18.946Z,89.09
2022-08-16T01:10:16.474Z,88.88
2022-08-16T01:13:12.110Z,89.04
2022-08-16T01:16:03.895Z,89.90
2022-08-16T01:19:08.862Z,90.13
2022-08-16T01:22:47.700Z,89.92
2022-08-16T01:25:19.115Z,90.48
2022-08-16T01:28:19.831Z,90.68
2022-08-16T01:31:10.769Z,90.58
2022-08-16T01:33:59.373Z,90.88
2022-08-16T01:36:48.257Z,90.97
2022-08-16T01:39:47.599Z,91.20
2022-08-16T01:42:37.604Z,90.76
2022-08-16T01:45:39.806Z,90.51
2022-08-16T01:48:32.634Z,89.75
2022-08-16T01:51:25.660Z,89.66
2022-08-16T01:54:15.359Z,89.30
2022-08-16T01:57:13.216Z,89.40
2022-08-16T02:00:10.521Z,89.66
2022-08-16T02:03:08.366Z,89.70
2022-08-16T02:06:01.066Z,89.26
2022-08-16T02:08:51.198Z,89.66
2022-08-16T02:11:47.764Z,90.18
2022-08-16T02:14:38.318Z,90.49
2022-08-16T02:17:28.644Z,90.41
2022-08-16T02:20:19.896Z,90.17
2022-08-16T02:23:17.221Z,90.65
2022-08-16T02:26:06.702Z,90.42
2022-08-16T02:28:56.753Z,90.87
2022-08-16T02:32:03.332Z,91.21
2022-08-16T02:34:56.555Z,91.62
2022-08-16T02:37:53.048Z,95.21
2022-08-16T02:40:44.750Z,94.26
2022-08-16T02:43:35.230Z,96.04
2022-08-16T02:46:33.322Z,95.68
2022-08-16T02:49:59.168Z,94.41
2022-08-16T02:52:34.249Z,94.16
2022-08-16T02:55:41.185Z,93.65
2022-08-16T02:58:32.696Z,95.33
2022-08-16T03:01:33.663Z,96.71
2022-08-16T03:04:50.562Z,96.61
2022-08-16T03:07:50.816Z,96.26
2022-08-16T03:10:40.666Z,95.51
2022-08-16T03:13:29.393Z,95.38
2022-08-16T03:16:38.023Z,97.60
2022-08-16T03:19:47.024Z,97.80
2022-08-16T03:22:36.795Z,97.35
2022-08-16T03:25:40.907Z,96.74
2022-08-16T03:28:33.319Z,96.19
2022-08-16T03:31:22.064Z,95.88
2022-08-16T03:34:11.341Z,95.66
2022-08-16T03:37:02.332Z,95.44
2022-08-16T03:39:56.594Z,95.38
2022-08-16T03:43:19.150Z,94.90
2022-08-16T03:46:02.206Z,94.48
2022-08-16T03:48:56.962Z,94.27
2022-08-16T03:51:45.539Z,94.04
2022-08-16T03:54:53.736Z,94.34
2022-08-16T03:57:52.358Z,94.29
2022-08-16T04:00:44.837Z,94.82
2022-08-16T04:03:37.630Z,94.88
2022-08-16T04:06:26.558Z,94.75
2022-08-16T04:09:15.936Z,94.43
2022-08-16T04:12:11.046Z,94.52
2022-08-16T04:15:17.265Z,94.38
2022-08-16T04:18:24.166Z,94.09
2022-08-16T04:21:14.938Z,94.13
2022-08-16T04:24:18.014Z,93.97
2022-08-16T04:27:09.080Z,95.47
2022-08-16T04:30:03.052Z,95.14
2022-08-16T04:32:55.759Z,95.29
2022-08-16T04:35:49.545Z,97.34
2022-08-16T04:38:38.655Z,96.95
2022-08-16T04:41:32.852Z,97.84
2022-08-16T04:44:32.726Z,95.47
2022-08-16T04:47:36.812Z,92.84
2022-08-16T04:50:33.085Z,92.40
2022-08-16T04:53:41.727Z,91.42
2022-08-16T04:56:31.119Z,90.96
2022-08-16T04:59:19.495Z,90.52
2022-08-16T05:02:41.917Z,89.86
2022-08-16T05:05:17.874Z,89.27
2022-08-16T05:08:29.424Z,88.78
2022-08-16T05:11:22.559Z,92.30
2022-08-16T05:14:11.550Z,95.33
2022-08-16T05:17:09.545Z,93.12
2022-08-16T05:20:00.433Z,95.83
2022-08-16T05:22:57.582Z,96.26
2022-08-16T05:25:48.257Z,97.20
2022-08-16T05:28:40.183Z,99.50
2022-08-16T05:31:31.217Z,98.70
2022-08-16T05:34:22.471Z,98.90
2022-08-16T05:37:16.124Z,100.00
2022-08-16T05:40:07.947Z,100.00
2022-08-16T05:42:57.487Z,100.00
2022-08-16T05:45:50.960Z,100.00
2022-08-16T05:48:39.690Z,100.00
2022-08-16T05:51:38.181Z,100.00
2022-08-16T05:54:29.810Z,100.00
2022-08-16T05:57:23.141Z,100.00
2022-08-16T06:00:22.336Z,100.00
2022-08-16T06:03:15.683Z,100.00
2022-08-16T06:06:28.117Z,100.00
2022-08-16T06:09:19.861Z,100.00
2022-08-16T06:12:09.386Z,100.00
2022-08-16T06:15:01.812Z,97.98
2022-08-16T06:17:52.743Z,98.05
2022-08-16T06:20:55.262Z,97.38
2022-08-16T06:23:45.596Z,96.37
2022-08-16T06:26:37.460Z,94.75
2022-08-16T06:29:34.647Z,94.14
2022-08-16T06:32:27.316Z,93.61
2022-08-16T06:35:18.802Z,93.75
2022-08-16T06:38:32.048Z,92.75
2022-08-16T06:41:20.387Z,91.55
2022-08-16T06:44:20.643Z,90.22
2022-08-16T06:47:17.182Z,90.18
2022-08-16T06:50:07.630Z,89.16
2022-08-16T06:53:08.522Z,87.72
2022-08-16T06:56:14.676Z,87.73
2022-08-16T06:59:48.654Z,87.70
2022-08-16T07:02:51.409Z,87.95
2022-08-16T07:05:41.961Z,86.13
2022-08-16T07:08:37.873Z,85.09
2022-08-16T07:11:47.970Z,84.64
2022-08-16T07:14:48.000Z,83.02
2022-08-16T07:17:39.014Z,82.12
2022-08-16T07:20:43.583Z,82.84
2022-08-16T07:23:39.120Z,82.32
2022-08-16T07:26:31.731Z,81.51
2022-08-16T07:29:20.059Z,81.95
2022-08-16T07:32:10.836Z,81.47
2022-08-16T07:34:59.540Z,80.82
2022-08-16T07:37:48.579Z,81.80
2022-08-16T07:41:01.980Z,82.78
2022-08-16T07:43:56.660Z,82.34
2022-08-16T07:46:47.294Z,80.94
2022-08-16T07:49:52.863Z,80.23
2022-08-16T07:52:50.289Z,79.37
2022-08-16T07:55:45.912Z,80.26
2022-08-16T07:58:43.342Z,82.64
2022-08-16T08:01:38.629Z,82.15
2022-08-16T08:04:32.476Z,80.44
2022-08-16T08:07:27.680Z,79.74
2022-08-16T08:10:29.166Z,77.96
2022-08-16T08:13:20.197Z,79.54
2022-08-16T08:16:29.492Z,77.21
2022-08-16T08:19:21.329Z,77.31
2022-08-16T08:22:19.340Z,75.32
2022-08-16T08:25:16.291Z,74.30
2022-08-16T08:28:05.542Z,75.25
2022-08-16T08:31:03.876Z,75.08
2022-08-16T08:34:00.849Z,74.76
2022-08-16T08:36:55.618Z,74.17
2022-08-16T08:40:14.057Z,73.88
2022-08-16T08:43:12.646Z,70.99
2022-08-16T08:46:21.224Z,68.38
2022-08-16T08:49:11.466Z,68.05
2022-08-16T08:52:07.985Z,67.13
2022-08-16T08:54:56.978Z,66.38
2022-08-16T08:57:47.630Z,67.06
2022-08-16T09:00:54.863Z,66.64
2022-08-16T09:03:49.968Z,65.54
2022-08-16T09:06:43.709Z,65.01
2022-08-16T09:09:41.037Z,65.11
2022-08-16T09:12:36.408Z,65.12
2022-08-16T09:15:32.978Z,64.46
2022-08-16T09:18:24.987Z,64.80
2022-08-16T09:21:16.676Z,67.87
2022-08-16T09:24:10.073Z,69.41
2022-08-16T09:27:03.622Z,67.01
2022-08-16T09:29:59.779Z,65.43
2022-08-16T09:32:54.851Z,65.01
2022-08-16T09:35:43.329Z,65.36
2022-08-16T09:38:32.929Z,65.13
2022-08-16T09:41:21.326Z,64.18
2022-08-16T09:45:09.580Z,64.17
2022-08-16T09:47:23.532Z,61.79
2022-08-16T09:50:13.870Z,61.16
2022-08-16T09:53:16.735Z,60.74
2022-08-16T09:56:11.325Z,62.25
2022-08-16T09:59:04.977Z,61.66
2022-08-16T10:01:57.772Z,62.03
2022-08-16T10:04:52.928Z,61.75
2022-08-16T10:07:45.405Z,60.75
2022-08-16T10:10:34.383Z,59.95
2022-08-16T10:13:21.779Z,59.32
2022-08-16T10:19:06.475Z,59.24
2022-08-16T10:21:56.622Z,57.63
2022-08-16T10:24:56.074Z,59.97
2022-08-16T10:27:53.340Z,58.71
2022-08-16T10:30:45.664Z,58.39
2022-08-16T10:33:35.344Z,59.82
2022-08-16T10:36:38.834Z,59.46
2022-08-16T10:39:41.147Z,57.57
2022-08-16T10:42:30.898Z,55.75
2022-08-16T10:45:20.326Z,55.67
2022-08-16T10:48:27.251Z,56.46
2022-08-16T10:51:17.295Z,55.53
2022-08-16T10:54:08.436Z,55.31
2022-08-16T10:57:17.031Z,53.47
2022-08-16T11:00:21.732Z,53.06
2022-08-16T11:06:20.176Z,54.96
2022-08-16T11:09:25.256Z,53.27
2022-08-16T11:12:14.970Z,53.18
2022-08-16T11:15:12.029Z,52.08
2022-08-16T11:21:09.583Z,53.66
2022-08-16T11:24:42.489Z,53.39
2022-08-16T11:27:35.390Z,53.75
2022-08-16T11:30:28.434Z,55.72
2022-08-16T11:36:36.767Z,52.73
2022-08-16T11:39:27.214Z,52.03
2022-08-16T11:42:23.073Z,51.54
2022-08-16T11:45:17.836Z,50.43
2022-08-16T11:48:08.785Z,50.77
2022-08-16T11:50:58.570Z,50.34
2022-08-16T11:53:47.136Z,50.37
2022-08-16T11:56:51.896Z,50.60
2022-08-16T11:59:41.708Z,52.43
2022-08-16T12:02:31.894Z,52.25
2022-08-16T12:05:21.596Z,51.96
2022-08-16T12:08:12.665Z,51.95
2022-08-16T12:11:02.425Z,51.90
2022-08-16T12:13:53.315Z,50.98
2022-08-16T12:16:48.614Z,50.25
2022-08-16T12:19:44.217Z,49.32
2022-08-16T12:22:33.994Z,47.53
2022-08-16T12:25:27.839Z,45.29
2022-08-16T12:28:16.912Z,44.35
2022-08-16T12:31:27.214Z,42.71
2022-08-16T12:34:28.683Z,44.01
2022-08-16T12:37:17.767Z,44.61
2022-08-16T12:40:23.813Z,45.59
2022-08-16T12:43:14.525Z,44.59
2022-08-16T12:46:03.737Z,45.20
2022-08-16T12:48:58.209Z,46.65
2022-08-16T12:51:58.873Z,46.25
2022-08-16T12:54:54.903Z,46.36
2022-08-16T12:57:44.565Z,47.04
2022-08-16T13:00:48.544Z,48.37
2022-08-16T13:03:40.631Z,55.54
2022-08-16T13:06:33.699Z,57.63
2022-08-16T13:09:26.665Z,61.64
2022-08-16T13:12:20.109Z,62.77
2022-08-16T13:15:12.632Z,62.29
2022-08-16T13:18:01.117Z,61.89
2022-08-16T13:20:59.671Z,62.32
2022-08-16T13:23:49.468Z,62.13
2022-08-16T13:26:39.643Z,63.06
2022-08-16T13:29:43.661Z,64.02
2022-08-16T13:32:40.654Z,64.11
2022-08-16T13:35:34.512Z,64.89
2022-08-16T13:38:26.089Z,64.16
2022-08-16T13:41:19.466Z,64.57
2022-08-16T13:44:09.458Z,64.14
2022-08-16T13:46:58.126Z,63.56
2022-08-16T13:49:47.142Z,62.77
2022-08-16T13:52:39.965Z,62.51
2022-08-16T13:55:29.109Z,62.32
2022-08-16T13:58:37.367Z,60.77
2022-08-16T14:01:28.016Z,61.11
2022-08-16T14:04:26.139Z,60.83
2022-08-16T14:07:19.952Z,61.21
2022-08-16T14:10:15.326Z,60.56
2022-08-16T14:13:03.950Z,58.26
2022-08-16T14:15:55.793Z,58.81
2022-08-16T14:18:44.189Z,59.05
2022-08-16T14:21:35.856Z,59.13
2022-08-16T14:24:30.109Z,59.21
2022-08-16T14:27:21.349Z,59.65
2022-08-16T14:30:15.609Z,57.69
2022-08-16T14:33:06.225Z,57.41
2022-08-16T14:35:55.161Z,56.19
2022-08-16T14:38:43.571Z,58.28
2022-08-16T14:41:32.067Z,56.84
2022-08-16T14:44:20.535Z,55.95
2022-08-16T14:47:09.348Z,58.14
2022-08-16T14:50:01.837Z,60.50
2022-08-16T14:52:56.594Z,58.34
2022-08-16T14:55:46.248Z,57.68
2022-08-16T14:58:38.121Z,56.91
2022-08-16T15:01:57.441Z,56.64
2022-08-16T15:04:40.086Z,56.44
2022-08-16T15:07:40.143Z,56.42
2022-08-16T15:10:29.351Z,55.95
2022-08-16T15:13:21.599Z,55.29
2022-08-16T15:16:10.095Z,54.84
2022-08-16T15:18:59.474Z,54.15
2022-08-16T15:21:53.694Z,54.34
2022-08-16T15:24:44.306Z,53.62
2022-08-16T15:27:36.782Z,53.11
2022-08-16T15:30:56.707Z,52.88
2022-08-16T15:33:43.306Z,52.10
2022-08-16T15:36:32.153Z,50.10
2022-08-16T15:39:26.955Z,50.39
2022-08-16T15:42:27.397Z,50.17
2022-08-16T15:45:38.098Z,50.36
2022-08-16T15:48:30.413Z,50.54
2022-08-16T15:51:18.921Z,50.92
2022-08-16T15:54:29.387Z,51.72
2022-08-16T15:57:17.209Z,50.67
2022-08-16T16:00:26.584Z,51.07
2022-08-16T16:03:17.404Z,50.47
2022-08-16T16:06:06.009Z,49.22
2022-08-16T16:08:54.635Z,49.42
2022-08-16T16:11:43.264Z,49.30
2022-08-16T16:14:32.006Z,49.91
2022-08-16T16:17:21.957Z,49.75
2022-08-16T16:20:14.878Z,50.59
2022-08-16T16:23:10.569Z,49.70
2022-08-16T16:26:05.789Z,50.05
2022-08-16T16:29:07.902Z,49.93
2022-08-16T16:32:05.878Z,51.59
2022-08-16T16:34:59.026Z,50.13
2022-08-16T16:37:48.766Z,48.44
2022-08-16T16:40:46.560Z,49.38
2022-08-16T16:43:45.192Z,49.04
2022-08-16T16:46:42.487Z,49.60
2022-08-16T16:49:33.850Z,49.06
2022-08-16T16:52:31.354Z,49.07
2022-08-16T16:55:33.355Z,49.74
2022-08-16T16:58:53.978Z,49.45
2022-08-16T17:01:59.384Z,49.67
2022-08-16T17:04:50.157Z,50.45
2022-08-16T17:07:40.633Z,50.40
2022-08-16T17:13:39.230Z,50.04
2022-08-16T17:16:33.017Z,49.94
2022-08-16T17:19:23.868Z,48.83
2022-08-16T17:22:15.518Z,48.85
2022-08-16T17:25:07.588Z,48.89
2022-08-16T17:27:56.700Z,48.77
2022-08-16T17:30:47.939Z,48.62
2022-08-16T17:33:54.812Z,49.60
2022-08-16T17:36:52.692Z,50.14
2022-08-16T17:39:26.047Z,50.42
2022-08-16T17:39:59.737Z,50.18
2022-08-16T17:42:53.577Z,49.96
2022-08-16T17:45:43.422Z,50.81
2022-08-16T17:48:32.555Z,52.61
2022-08-16T17:51:21.444Z,53.31
2022-08-16T17:54:20.248Z,54.16
2022-08-16T17:57:18.274Z,53.97
2022-08-16T18:00:15.840Z,54.05
2022-08-16T18:03:15.082Z,54.60
2022-08-16T18:06:15.813Z,55.12
2022-08-16T18:09:05.169Z,55.55
2022-08-16T18:11:54.995Z,55.94
2022-08-16T18:14:52.268Z,56.08
2022-08-16T18:17:43.988Z,56.41
2022-08-16T18:20:50.101Z,57.42
2022-08-16T18:23:38.907Z,56.97
2022-08-16T18:26:27.434Z,58.77
2022-08-16T18:29:16.332Z,58.55
2022-08-16T18:32:05.682Z,58.23
2022-08-16T18:34:55.491Z,59.58
2022-08-16T18:37:44.028Z,59.51
2022-08-16T18:40:33.249Z,61.20
2022-08-16T18:44:00.898Z,62.78
2022-08-16T18:46:32.379Z,61.58
2022-08-16T18:49:21.012Z,61.05
2022-08-16T18:52:25.538Z,61.48
2022-08-16T18:55:15.044Z,63.42
2022-08-16T18:58:04.725Z,64.95
2022-08-16T19:00:56.353Z,65.62
2022-08-16T19:03:45.581Z,67.16
2022-08-16T19:06:33.977Z,65.23
2022-08-16T19:09:23.789Z,66.30
2022-08-16T19:12:12.311Z,66.97
2022-08-16T19:15:07.255Z,67.63
2022-08-16T19:17:56.498Z,67.66
2022-08-16T19:20:45.818Z,68.49
2022-08-16T19:23:37.276Z,68.02
2022-08-16T19:26:27.171Z,67.03
2022-08-16T19:29:16.153Z,68.60
2022-08-16T19:32:05.852Z,67.77
2022-08-16T19:34:56.619Z,67.02
2022-08-16T19:37:46.143Z,68.48
2022-08-16T19:40:37.637Z,69.83
2022-08-16T19:43:28.301Z,71.42
2022-08-16T19:46:17.452Z,71.10
2022-08-16T19:49:05.961Z,71.95
2022-08-16T19:51:54.968Z,71.74
2022-08-16T19:54:44.115Z,71.04
2022-08-16T19:57:32.843Z,70.08
2022-08-16T20:00:24.262Z,70.18
2022-08-16T20:03:24.726Z,70.20
2022-08-16T20:06:13.412Z,69.90
2022-08-16T20:09:22.900Z,69.37
2022-08-16T20:12:13.240Z,69.07
2022-08-16T20:15:01.922Z,70.19
2022-08-16T20:17:52.070Z,69.44
2022-08-16T20:20:43.143Z,69.20
2022-08-16T20:23:31.597Z,70.20
2022-08-16T20:26:23.779Z,70.01
2022-08-16T20:29:12.199Z,71.05
2022-08-16T20:32:01.051Z,71.63
2022-08-16T20:34:53.579Z,71.53
2022-08-16T20:37:43.079Z,70.08
2022-08-16T20:40:35.049Z,69.15
2022-08-16T20:43:24.055Z,69.24
2022-08-16T20:46:12.640Z,69.21
2022-08-16T20:49:01.043Z,69.12
2022-08-16T20:51:55.884Z,68.62
2022-08-16T20:54:48.003Z,69.08
2022-08-16T20:57:38.025Z,68.84
2022-08-16T21:00:26.515Z,68.13
2022-08-16T21:03:15.452Z,68.68
2022-08-16T21:06:05.556Z,70.11
2022-08-16T21:08:55.554Z,70.28
2022-08-16T21:11:44.105Z,70.59
2022-08-16T21:14:34.310Z,71.88
2022-08-16T21:17:22.999Z,71.72
2022-08-16T21:20:12.727Z,71.90
2022-08-16T21:23:03.614Z,72.33
2022-08-16T21:25:59.308Z,73.99
2022-08-16T21:28:48.191Z,74.77
2022-08-16T21:31:37.021Z,74.60
2022-08-16T21:34:25.393Z,75.16
2022-08-16T21:37:15.718Z,75.26
2022-08-16T21:40:05.946Z,75.88
2022-08-16T21:42:56.210Z,76.31
2022-08-16T21:45:46.263Z,76.48
2022-08-16T21:48:36.315Z,75.72
2022-08-16T21:51:29.048Z,75.11
2022-08-16T21:54:17.557Z,74.99
2022-08-16T21:57:10.614Z,75.27
2022-08-16T22:00:01.013Z,73.92
2022-08-16T22:02:51.329Z,75.28
2022-08-16T22:05:42.677Z,75.46
2022-08-16T22:08:31.586Z,75.09
2022-08-16T22:11:20.768Z,75.62
2022-08-16T22:14:09.826Z,75.20
2022-08-16T22:16:59.813Z,75.10
2022-08-16T22:19:48.230Z,73.88
2022-08-16T22:22:37.542Z,74.28
2022-08-16T22:25:26.227Z,74.03
2022-08-16T22:28:15.886Z,73.32
2022-08-16T22:31:04.271Z,73.27
2022-08-16T22:33:56.815Z,73.01
2022-08-16T22:36:45.500Z,73.86
2022-08-16T22:39:34.111Z,75.70
2022-08-16T22:42:23.224Z,77.05
2022-08-16T22:45:13.247Z,77.20
2022-08-16T22:48:01.733Z,77.92
2022-08-16T22:50:51.794Z,77.31
2022-08-16T22:53:40.394Z,77.21
2022-08-16T22:56:29.383Z,76.89
2022-08-16T22:59:17.923Z,77.85
2022-08-16T23:02:09.937Z,77.47
2022-08-16T23:04:58.504Z,77.65
2022-08-16T23:07:49.212Z,77.60
2022-08-16T23:10:38.399Z,77.40
2022-08-16T23:13:28.080Z,78.06
2022-08-16T23:16:17.148Z,78.39
2022-08-16T23:19:09.394Z,79.00
2022-08-16T23:21:58.106Z,78.04
2022-08-16T23:24:56.991Z,78.46
2022-08-16T23:27:45.548Z,78.83
2022-08-16T23:30:36.784Z,78.93
2022-08-16T23:33:29.724Z,79.35
2022-08-16T23:36:18.060Z,79.24
2022-08-16T23:39:06.568Z,79.30
2022-08-16T23:41:56.735Z,79.85
2022-08-16T23:44:59.076Z,80.36
2022-08-16T23:47:47.752Z,81.17
2022-08-16T23:50:38.344Z,82.19
2022-08-16T23:53:28.830Z,82.74
2022-08-16T23:56:20.416Z,86.61
2022-08-16T23:59:10.275Z,86.49
